sensor_id;sensor_type;location;lat;lon;timestamp;temperature;humidity
24632;DHT22;59977;48.782;9.190;2022-08-01T00:00:09;24.60;68.40
24632;DHT22;59977;48.782;9.190;2022-08-01T00:02:36;24.60;68.20
24632;DHT22;59977;48.782;9.190;2022-08-01T00:05:06;24.60;68.60
24632;DHT22;59977;48.782;9.190;2022-08-01T00:07:33;24.60;68.70
24632;DHT22;59977;48.782;9.190;2022-08-01T00:09:59;24.50;69.60
24632;DHT22;59977;48.782;9.190;2022-08-01T00:12:24;24.40;69.30
24632;DHT22;59977;48.782;9.190;2022-08-01T00:14:50;24.40;69.40
24632;DHT22;59977;48.782;9.190;2022-08-01T00:17:16;24.40;69.80
24632;DHT22;59977;48.782;9.190;2022-08-01T00:19:42;24.40;69.60
24632;DHT22;59977;48.782;9.190;2022-08-01T00:22:07;24.30;69.70
24632;DHT22;59977;48.782;9.190;2022-08-01T00:24:33;24.30;70.10
24632;DHT22;59977;48.782;9.190;2022-08-01T00:26:59;24.40;70.20
24632;DHT22;59977;48.782;9.190;2022-08-01T00:29:24;24.30;70.30
24632;DHT22;59977;48.782;9.190;2022-08-01T00:31:50;24.30;70.40
24632;DHT22;59977;48.782;9.190;2022-08-01T00:34:15;24.30;70.40
24632;DHT22;59977;48.782;9.190;2022-08-01T00:36:41;24.30;71.00
24632;DHT22;59977;48.782;9.190;2022-08-01T00:39:07;24.30;70.80
24632;DHT22;59977;48.782;9.190;2022-08-01T00:41:32;24.30;70.90
24632;DHT22;59977;48.782;9.190;2022-08-01T00:44:01;24.30;71.00
24632;DHT22;59977;48.782;9.190;2022-08-01T00:46:27;24.20;71.20
24632;DHT22;59977;48.782;9.190;2022-08-01T00:48:52;24.20;71.70
24632;DHT22;59977;48.782;9.190;2022-08-01T00:51:20;24.10;71.60
24632;DHT22;59977;48.782;9.190;2022-08-01T00:53:46;24.10;72.10
24632;DHT22;59977;48.782;9.190;2022-08-01T00:56:11;24.10;72.30
24632;DHT22;59977;48.782;9.190;2022-08-01T00:58:37;24.10;72.50
24632;DHT22;59977;48.782;9.190;2022-08-01T01:01:03;24.10;72.50
24632;DHT22;59977;48.782;9.190;2022-08-01T01:03:28;24.10;72.70
24632;DHT22;59977;48.782;9.190;2022-08-01T01:06:11;24.00;73.00
24632;DHT22;59977;48.782;9.190;2022-08-01T01:08:46;24.00;73.40
24632;DHT22;59977;48.782;9.190;2022-08-01T01:11:20;23.90;73.60
24632;DHT22;59977;48.782;9.190;2022-08-01T01:13:52;23.20;73.80
24632;DHT22;59977;48.782;9.190;2022-08-01T01:16:19;23.70;75.00
24632;DHT22;59977;48.782;9.190;2022-08-01T01:18:55;23.70;75.00
24632;DHT22;59977;48.782;9.190;2022-08-01T01:24:03;23.70;75.50
24632;DHT22;59977;48.782;9.190;2022-08-01T01:29:33;23.80;76.00
24632;DHT22;59977;48.782;9.190;2022-08-01T01:32:14;23.80;76.40
24632;DHT22;59977;48.782;9.190;2022-08-01T01:34:43;23.80;76.40
24632;DHT22;59977;48.782;9.190;2022-08-01T01:37:14;23.70;76.80
24632;DHT22;59977;48.782;9.190;2022-08-01T01:39:41;23.60;77.20
24632;DHT22;59977;48.782;9.190;2022-08-01T01:42:08;23.60;78.40
24632;DHT22;59977;48.782;9.190;2022-08-01T01:44:35;23.50;78.20
24632;DHT22;59977;48.782;9.190;2022-08-01T01:47:02;23.50;78.60
24632;DHT22;59977;48.782;9.190;2022-08-01T01:49:28;23.60;79.00
24632;DHT22;59977;48.782;9.190;2022-08-01T01:51:56;23.60;79.40
24632;DHT22;59977;48.782;9.190;2022-08-01T01:54:25;23.60;79.60
24632;DHT22;59977;48.782;9.190;2022-08-01T01:56:56;23.60;79.80
24632;DHT22;59977;48.782;9.190;2022-08-01T01:59:25;23.60;80.10
24632;DHT22;59977;48.782;9.190;2022-08-01T02:01:53;23.60;80.50
24632;DHT22;59977;48.782;9.190;2022-08-01T02:04:21;23.60;80.60
24632;DHT22;59977;48.782;9.190;2022-08-01T02:06:50;23.60;80.90
24632;DHT22;59977;48.782;9.190;2022-08-01T02:09:18;23.60;81.30
24632;DHT22;59977;48.782;9.190;2022-08-01T02:11:46;23.50;81.50
24632;DHT22;59977;48.782;9.190;2022-08-01T02:14:13;23.50;81.70
24632;DHT22;59977;48.782;9.190;2022-08-01T02:16:41;23.50;82.10
24632;DHT22;59977;48.782;9.190;2022-08-01T02:19:08;23.50;82.50
24632;DHT22;59977;48.782;9.190;2022-08-01T02:21:57;23.50;83.00
24632;DHT22;59977;48.782;9.190;2022-08-01T02:27:00;23.40;83.60
24632;DHT22;59977;48.782;9.190;2022-08-01T02:29:46;23.40;84.00
24632;DHT22;59977;48.782;9.190;2022-08-01T02:32:23;23.40;84.40
24632;DHT22;59977;48.782;9.190;2022-08-01T02:34:51;23.40;84.80
24632;DHT22;59977;48.782;9.190;2022-08-01T02:37:17;23.30;85.50
24632;DHT22;59977;48.782;9.190;2022-08-01T02:39:47;23.30;85.50
24632;DHT22;59977;48.782;9.190;2022-08-01T02:42:14;23.30;86.80
24632;DHT22;59977;48.782;9.190;2022-08-01T02:44:42;23.20;87.30
24632;DHT22;59977;48.782;9.190;2022-08-01T02:47:09;23.20;87.80
24632;DHT22;59977;48.782;9.190;2022-08-01T02:49:39;23.20;88.20
24632;DHT22;59977;48.782;9.190;2022-08-01T02:52:09;23.20;88.80
24632;DHT22;59977;48.782;9.190;2022-08-01T02:54:36;23.10;89.50
24632;DHT22;59977;48.782;9.190;2022-08-01T02:57:03;23.10;90.20
24632;DHT22;59977;48.782;9.190;2022-08-01T02:59:31;23.00;90.50
24632;DHT22;59977;48.782;9.190;2022-08-01T03:02:00;23.00;90.70
24632;DHT22;59977;48.782;9.190;2022-08-01T03:04:27;23.00;91.10
24632;DHT22;59977;48.782;9.190;2022-08-01T03:06:54;23.00;91.40
24632;DHT22;59977;48.782;9.190;2022-08-01T03:09:22;23.00;91.80
24632;DHT22;59977;48.782;9.190;2022-08-01T03:11:49;23.00;92.10
24632;DHT22;59977;48.782;9.190;2022-08-01T03:14:16;22.90;92.40
24632;DHT22;59977;48.782;9.190;2022-08-01T03:16:45;22.90;92.90
24632;DHT22;59977;48.782;9.190;2022-08-01T03:19:12;22.80;93.30
24632;DHT22;59977;48.782;9.190;2022-08-01T03:21:40;22.80;93.80
24632;DHT22;59977;48.782;9.190;2022-08-01T03:24:08;22.80;94.40
24632;DHT22;59977;48.782;9.190;2022-08-01T03:26:36;22.70;94.90
24632;DHT22;59977;48.782;9.190;2022-08-01T03:29:05;22.70;95.40
24632;DHT22;59977;48.782;9.190;2022-08-01T03:31:37;22.80;95.80
24632;DHT22;59977;48.782;9.190;2022-08-01T03:34:04;22.80;96.20
24632;DHT22;59977;48.782;9.190;2022-08-01T03:36:31;22.80;96.60
24632;DHT22;59977;48.782;9.190;2022-08-01T03:39:00;22.70;96.80
24632;DHT22;59977;48.782;9.190;2022-08-01T03:41:32;22.80;97.20
24632;DHT22;59977;48.782;9.190;2022-08-01T03:44:06;22.80;97.60
24632;DHT22;59977;48.782;9.190;2022-08-01T03:46:36;22.80;98.00
24632;DHT22;59977;48.782;9.190;2022-08-01T03:49:08;22.80;98.40
24632;DHT22;59977;48.782;9.190;2022-08-01T03:51:37;22.70;98.90
24632;DHT22;59977;48.782;9.190;2022-08-01T03:54:04;22.70;99.40
24632;DHT22;59977;48.782;9.190;2022-08-01T03:56:31;22.60;99.80
24632;DHT22;59977;48.782;9.190;2022-08-01T03:58:59;22.60;99.90
24632;DHT22;59977;48.782;9.190;2022-08-01T04:01:27;22.50;99.90
24632;DHT22;59977;48.782;9.190;2022-08-01T04:03:53;22.50;99.90
24632;DHT22;59977;48.782;9.190;2022-08-01T04:06:18;22.60;99.90
24632;DHT22;59977;48.782;9.190;2022-08-01T04:08:44;22.50;99.90
24632;DHT22;59977;48.782;9.190;2022-08-01T04:11:21;22.60;99.90
24632;DHT22;59977;48.782;9.190;2022-08-01T04:13:48;22.60;99.90
24632;DHT22;59977;48.782;9.190;2022-08-01T04:16:13;22.60;99.90
24632;DHT22;59977;48.782;9.190;2022-08-01T04:18:39;22.50;99.90
24632;DHT22;59977;48.782;9.190;2022-08-01T04:21:04;22.60;99.90
24632;DHT22;59977;48.782;9.190;2022-08-01T04:23:31;22.60;99.90
24632;DHT22;59977;48.782;9.190;2022-08-01T04:25:59;22.60;99.90
24632;DHT22;59977;48.782;9.190;2022-08-01T04:28:25;22.60;99.90
24632;DHT22;59977;48.782;9.190;2022-08-01T04:30:54;22.60;99.90
24632;DHT22;59977;48.782;9.190;2022-08-01T04:33:21;22.60;99.90
24632;DHT22;59977;48.782;9.190;2022-08-01T04:35:48;22.60;99.90
24632;DHT22;59977;48.782;9.190;2022-08-01T04:38:19;22.50;99.90
24632;DHT22;59977;48.782;9.190;2022-08-01T04:40:46;22.40;99.90
24632;DHT22;59977;48.782;9.190;2022-08-01T04:43:14;22.60;99.90
24632;DHT22;59977;48.782;9.190;2022-08-01T04:45:40;22.60;99.90
24632;DHT22;59977;48.782;9.190;2022-08-01T04:48:09;22.60;99.90
24632;DHT22;59977;48.782;9.190;2022-08-01T04:50:36;22.60;99.90
24632;DHT22;59977;48.782;9.190;2022-08-01T04:53:02;22.60;99.90
24632;DHT22;59977;48.782;9.190;2022-08-01T04:55:28;22.50;99.90
24632;DHT22;59977;48.782;9.190;2022-08-01T04:57:54;22.60;99.90
24632;DHT22;59977;48.782;9.190;2022-08-01T05:00:19;22.60;99.90
24632;DHT22;59977;48.782;9.190;2022-08-01T05:02:45;22.60;99.90
24632;DHT22;59977;48.782;9.190;2022-08-01T05:05:11;22.50;99.90
24632;DHT22;59977;48.782;9.190;2022-08-01T05:07:37;22.60;99.90
24632;DHT22;59977;48.782;9.190;2022-08-01T05:10:04;22.60;99.90
24632;DHT22;59977;48.782;9.190;2022-08-01T05:12:30;22.50;99.90
24632;DHT22;59977;48.782;9.190;2022-08-01T05:14:58;22.50;99.90
24632;DHT22;59977;48.782;9.190;2022-08-01T05:17:23;22.60;99.90
24632;DHT22;59977;48.782;9.190;2022-08-01T05:19:49;22.60;99.90
24632;DHT22;59977;48.782;9.190;2022-08-01T05:22:15;22.60;99.90
24632;DHT22;59977;48.782;9.190;2022-08-01T05:24:40;22.60;99.90
24632;DHT22;59977;48.782;9.190;2022-08-01T05:27:06;22.60;99.90
24632;DHT22;59977;48.782;9.190;2022-08-01T05:29:33;22.60;99.90
24632;DHT22;59977;48.782;9.190;2022-08-01T05:31:59;22.70;99.90
24632;DHT22;59977;48.782;9.190;2022-08-01T05:34:25;22.70;99.90
24632;DHT22;59977;48.782;9.190;2022-08-01T05:36:51;22.80;99.90
24632;DHT22;59977;48.782;9.190;2022-08-01T14:34:24;30.40;74.20
24632;DHT22;59977;48.782;9.190;2022-08-01T14:36:49;30.10;75.70
24632;DHT22;59977;48.782;9.190;2022-08-01T14:39:15;30.40;74.00
24632;DHT22;59977;48.782;9.190;2022-08-01T14:41:41;30.50;74.30
24632;DHT22;59977;48.782;9.190;2022-08-01T14:44:06;31.10;73.70
24632;DHT22;59977;48.782;9.190;2022-08-01T14:46:33;31.40;72.10
24632;DHT22;59977;48.782;9.190;2022-08-01T14:48:58;31.90;70.50
24632;DHT22;59977;48.782;9.190;2022-08-01T14:51:24;31.90;68.90
24632;DHT22;59977;48.782;9.190;2022-08-01T14:53:50;31.40;69.70
24632;DHT22;59977;48.782;9.190;2022-08-01T14:56:16;31.70;70.40
24632;DHT22;59977;48.782;9.190;2022-08-01T14:58:42;32.00;69.00
24632;DHT22;59977;48.782;9.190;2022-08-01T15:01:08;31.80;68.70
24632;DHT22;59977;48.782;9.190;2022-08-01T15:03:34;31.60;68.60
24632;DHT22;59977;48.782;9.190;2022-08-01T15:05:59;31.40;69.40
24632;DHT22;59977;48.782;9.190;2022-08-01T15:08:25;30.70;70.10
24632;DHT22;59977;48.782;9.190;2022-08-01T15:10:52;30.40;71.80
24632;DHT22;59977;48.782;9.190;2022-08-01T15:13:17;30.50;71.60
24632;DHT22;59977;48.782;9.190;2022-08-01T15:15:43;30.80;69.60
24632;DHT22;59977;48.782;9.190;2022-08-01T15:18:08;30.50;70.30
24632;DHT22;59977;48.782;9.190;2022-08-01T15:20:34;30.00;70.60
24632;DHT22;59977;48.782;9.190;2022-08-01T15:23:00;30.40;70.60
24632;DHT22;59977;48.782;9.190;2022-08-01T15:25:25;31.10;69.80
24632;DHT22;59977;48.782;9.190;2022-08-01T15:27:51;31.00;68.80
24632;DHT22;59977;48.782;9.190;2022-08-01T15:30:19;31.10;68.60
24632;DHT22;59977;48.782;9.190;2022-08-01T15:32:45;31.40;67.20
24632;DHT22;59977;48.782;9.190;2022-08-01T15:35:11;30.70;67.40
24632;DHT22;59977;48.782;9.190;2022-08-01T19:52:10;25.90;90.40
24632;DHT22;59977;48.782;9.190;2022-08-01T19:54:42;25.80;90.90
24632;DHT22;59977;48.782;9.190;2022-08-01T19:57:12;25.90;90.70
24632;DHT22;59977;48.782;9.190;2022-08-01T19:59:39;25.90;90.70
24632;DHT22;59977;48.782;9.190;2022-08-01T20:02:06;26.00;90.90
24632;DHT22;59977;48.782;9.190;2022-08-01T20:04:32;26.10;91.30
24632;DHT22;59977;48.782;9.190;2022-08-01T20:06:58;26.10;92.20
24632;DHT22;59977;48.782;9.190;2022-08-01T20:09:26;26.10;93.10
24632;DHT22;59977;48.782;9.190;2022-08-01T20:11:53;26.00;95.50
24632;DHT22;59977;48.782;9.190;2022-08-01T20:14:20;25.90;98.10
24632;DHT22;59977;48.782;9.190;2022-08-01T20:16:47;25.80;99.90
24632;DHT22;59977;48.782;9.190;2022-08-01T20:19:14;25.70;99.90
24632;DHT22;59977;48.782;9.190;2022-08-01T20:21:43;25.50;99.90
24632;DHT22;59977;48.782;9.190;2022-08-01T20:24:13;25.20;99.90
24632;DHT22;59977;48.782;9.190;2022-08-01T20:26:40;25.00;99.90
24632;DHT22;59977;48.782;9.190;2022-08-01T20:29:06;24.80;99.90
24632;DHT22;59977;48.782;9.190;2022-08-01T20:31:32;24.80;99.90
24632;DHT22;59977;48.782;9.190;2022-08-01T20:34:00;24.70;99.90
24632;DHT22;59977;48.782;9.190;2022-08-01T20:36:27;24.70;99.90
24632;DHT22;59977;48.782;9.190;2022-08-01T20:38:54;24.70;99.90
24632;DHT22;59977;48.782;9.190;2022-08-01T20:41:25;24.80;99.90
24632;DHT22;59977;48.782;9.190;2022-08-01T20:43:53;24.70;99.90
24632;DHT22;59977;48.782;9.190;2022-08-01T20:46:26;24.60;99.90
24632;DHT22;59977;48.782;9.190;2022-08-01T20:48:53;24.50;99.90
24632;DHT22;59977;48.782;9.190;2022-08-01T20:51:25;24.60;99.90
24632;DHT22;59977;48.782;9.190;2022-08-01T20:53:51;24.60;99.90
24632;DHT22;59977;48.782;9.190;2022-08-01T21:01:59;24.60;99.90
24632;DHT22;59977;48.782;9.190;2022-08-01T21:07:23;24.50;99.90
24632;DHT22;59977;48.782;9.190;2022-08-01T21:13:16;24.30;99.90
24632;DHT22;59977;48.782;9.190;2022-08-01T21:15:39;24.40;99.90
24632;DHT22;59977;48.782;9.190;2022-08-01T21:18:25;24.40;99.90
24632;DHT22;59977;48.782;9.190;2022-08-01T21:20:59;24.30;99.90
24632;DHT22;59977;48.782;9.190;2022-08-01T21:25:51;24.10;99.90
24632;DHT22;59977;48.782;9.190;2022-08-01T21:28:19;24.20;99.90
24632;DHT22;59977;48.782;9.190;2022-08-01T21:30:46;24.00;99.90
24632;DHT22;59977;48.782;9.190;2022-08-01T21:33:13;23.90;99.90
24632;DHT22;59977;48.782;9.190;2022-08-01T21:35:39;23.70;99.90
24632;DHT22;59977;48.782;9.190;2022-08-01T21:38:05;23.70;99.90
24632;DHT22;59977;48.782;9.190;2022-08-01T21:40:33;23.70;99.90
24632;DHT22;59977;48.782;9.190;2022-08-01T21:43:00;23.70;99.90
24632;DHT22;59977;48.782;9.190;2022-08-01T21:45:26;23.70;99.90
24632;DHT22;59977;48.782;9.190;2022-08-01T21:47:53;23.60;99.90
24632;DHT22;59977;48.782;9.190;2022-08-01T21:50:20;23.40;99.90
24632;DHT22;59977;48.782;9.190;2022-08-01T21:53:15;23.30;99.90
24632;DHT22;59977;48.782;9.190;2022-08-01T22:01:12;23.30;99.90
24632;DHT22;59977;48.782;9.190;2022-08-01T22:03:47;23.20;99.90
24632;DHT22;59977;48.782;9.190;2022-08-01T22:06:14;23.70;99.90
24632;DHT22;59977;48.782;9.190;2022-08-01T22:08:52;23.10;99.90
24632;DHT22;59977;48.782;9.190;2022-08-01T22:11:36;23.10;99.90
24632;DHT22;59977;48.782;9.190;2022-08-01T22:14:04;23.10;99.90
24632;DHT22;59977;48.782;9.190;2022-08-01T22:16:32;23.00;99.90
24632;DHT22;59977;48.782;9.190;2022-08-01T22:19:00;23.00;99.90
24632;DHT22;59977;48.782;9.190;2022-08-01T22:21:26;23.00;99.90
24632;DHT22;59977;48.782;9.190;2022-08-01T22:23:53;22.80;99.90
24632;DHT22;59977;48.782;9.190;2022-08-01T22:26:20;22.70;99.90
24632;DHT22;59977;48.782;9.190;2022-08-01T22:28:50;22.70;99.90
24632;DHT22;59977;48.782;9.190;2022-08-01T22:31:16;22.70;99.90
24632;DHT22;59977;48.782;9.190;2022-08-01T22:33:44;22.70;99.90
24632;DHT22;59977;48.782;9.190;2022-08-01T22:36:11;22.80;99.90
24632;DHT22;59977;48.782;9.190;2022-08-01T22:38:37;22.90;99.90
24632;DHT22;59977;48.782;9.190;2022-08-01T22:41:05;22.90;99.90
24632;DHT22;59977;48.782;9.190;2022-08-01T22:48:40;22.80;99.90
24632;DHT22;59977;48.782;9.190;2022-08-01T22:51:17;22.90;99.90
24632;DHT22;59977;48.782;9.190;2022-08-01T22:54:11;22.90;99.90
24632;DHT22;59977;48.782;9.190;2022-08-01T22:56:41;23.00;99.90
24632;DHT22;59977;48.782;9.190;2022-08-01T22:59:13;23.00;99.90
24632;DHT22;59977;48.782;9.190;2022-08-01T23:01:41;23.00;99.90
24632;DHT22;59977;48.782;9.190;2022-08-01T23:04:11;23.00;99.90
24632;DHT22;59977;48.782;9.190;2022-08-01T23:06:46;22.60;99.90
24632;DHT22;59977;48.782;9.190;2022-08-01T23:09:15;22.60;99.90
24632;DHT22;59977;48.782;9.190;2022-08-01T23:11:42;22.60;99.90
24632;DHT22;59977;48.782;9.190;2022-08-01T23:14:09;22.60;99.90
24632;DHT22;59977;48.782;9.190;2022-08-01T23:16:35;22.50;99.90
24632;DHT22;59977;48.782;9.190;2022-08-01T23:19:02;22.40;99.90
24632;DHT22;59977;48.782;9.190;2022-08-01T23:21:28;22.30;99.90
24632;DHT22;59977;48.782;9.190;2022-08-01T23:23:57;22.40;99.90
24632;DHT22;59977;48.782;9.190;2022-08-01T23:26:23;22.50;99.90
24632;DHT22;59977;48.782;9.190;2022-08-01T23:28:51;22.40;99.90
24632;DHT22;59977;48.782;9.190;2022-08-01T23:31:18;22.30;99.90
24632;DHT22;59977;48.782;9.190;2022-08-01T23:33:44;22.20;99.90
24632;DHT22;59977;48.782;9.190;2022-08-01T23:36:10;21.90;99.90
24632;DHT22;59977;48.782;9.190;2022-08-01T23:38:35;21.90;99.90
24632;DHT22;59977;48.782;9.190;2022-08-01T23:41:01;21.90;99.90
24632;DHT22;59977;48.782;9.190;2022-08-01T23:43:42;21.90;99.90
24632;DHT22;59977;48.782;9.190;2022-08-01T23:46:08;21.90;99.90
24632;DHT22;59977;48.782;9.190;2022-08-01T23:48:34;21.90;99.90
24632;DHT22;59977;48.782;9.190;2022-08-01T23:51:01;21.80;99.90
24632;DHT22;59977;48.782;9.190;2022-08-01T23:53:27;21.60;99.90
24632;DHT22;59977;48.782;9.190;2022-08-01T23:55:53;21.70;99.90
24632;DHT22;59977;48.782;9.190;2022-08-01T23:58:18;21.70;99.90
